sensor_id;sensor_type;location;lat;lon;timestamp;pressure;altitude;pressure_sealevel;temperature;humidity
49297;BME280;35163;48.878;18.040;2023-02-03T00:01:53;99070.66;;;2.04;55.21
49297;BME280;35163;48.878;18.040;2023-02-03T00:04:19;99074.03;;;2.03;54.86
49297;BME280;35163;48.878;18.040;2023-02-03T00:06:46;99075.78;;;2.07;55.06
49297;BME280;35163;48.878;18.040;2023-02-03T00:09:16;99070.72;;;2.10;54.74
49297;BME280;35163;48.878;18.040;2023-02-03T00:11:43;99072.34;;;2.03;55.59
49297;BME280;35163;48.878;18.040;2023-02-03T00:14:09;99077.44;;;2.03;55.90
49297;BME280;35163;48.878;18.040;2023-02-03T00:16:36;99080.00;;;2.05;55.32
49297;BME280;35163;48.878;18.040;2023-02-03T00:19:02;99081.66;;;2.03;54.77
49297;BME280;35163;48.878;18.040;2023-02-03T00:21:29;99081.56;;;1.93;54.84
49297;BME280;35163;48.878;18.040;2023-02-03T00:23:55;99090.09;;;1.96;54.63
49297;BME280;35163;48.878;18.040;2023-02-03T00:26:22;99095.13;;;1.92;55.04
49297;BME280;35163;48.878;18.040;2023-02-03T00:28:51;99098.53;;;1.91;54.69
49297;BME280;35163;48.878;18.040;2023-02-03T00:31:20;99106.97;;;1.87;55.66
49297;BME280;35163;48.878;18.040;2023-02-03T00:33:47;99099.41;;;1.92;54.95
49297;BME280;35163;48.878;18.040;2023-02-03T00:36:18;99105.28;;;1.88;55.59
49297;BME280;35163;48.878;18.040;2023-02-03T00:38:45;99108.72;;;1.90;54.52
49297;BME280;35163;48.878;18.040;2023-02-03T00:41:12;99113.81;;;1.90;54.22
49297;BME280;35163;48.878;18.040;2023-02-03T00:43:39;99123.09;;;1.86;54.32
49297;BME280;35163;48.878;18.040;2023-02-03T00:46:05;99123.06;;;1.83;53.89
49297;BME280;35163;48.878;18.040;2023-02-03T00:48:32;99122.13;;;1.78;54.36
49297;BME280;35163;48.878;18.040;2023-02-03T00:50:58;99123.81;;;1.76;54.33
49297;BME280;35163;48.878;18.040;2023-02-03T00:53:25;99126.38;;;1.77;54.62
49297;BME280;35163;48.878;18.040;2023-02-03T00:55:51;99123.75;;;1.73;54.52
49297;BME280;35163;48.878;18.040;2023-02-03T00:58:18;99116.03;;;1.68;55.24
49297;BME280;35163;48.878;18.040;2023-02-03T01:00:44;99117.69;;;1.66;54.96
49297;BME280;35163;48.878;18.040;2023-02-03T01:03:11;99116.03;;;1.66;54.59
49297;BME280;35163;48.878;18.040;2023-02-03T01:05:37;99118.50;;;1.63;54.31
49297;BME280;35163;48.878;18.040;2023-02-03T01:08:04;99121.00;;;1.60;54.31
49297;BME280;35163;48.878;18.040;2023-02-03T01:10:31;99118.47;;;1.62;54.89
49297;BME280;35163;48.878;18.040;2023-02-03T01:12:57;99118.47;;;1.62;54.46
49297;BME280;35163;48.878;18.040;2023-02-03T01:15:24;99110.78;;;1.58;54.66
49297;BME280;35163;48.878;18.040;2023-02-03T01:17:50;99114.19;;;1.57;54.36
49297;BME280;35163;48.878;18.040;2023-02-03T01:20:17;99110.72;;;1.54;53.93
49297;BME280;35163;48.878;18.040;2023-02-03T01:22:43;99116.66;;;1.53;54.31
49297;BME280;35163;48.878;18.040;2023-02-03T01:25:10;99120.94;;;1.55;53.77
49297;BME280;35163;48.878;18.040;2023-02-03T01:27:36;99114.91;;;1.52;54.50
49297;BME280;35163;48.878;18.040;2023-02-03T01:30:03;99118.28;;;1.49;54.43
49297;BME280;35163;48.878;18.040;2023-02-03T01:32:30;99125.09;;;1.50;54.16
49297;BME280;35163;48.878;18.040;2023-02-03T01:34:56;99115.75;;;1.49;53.96
49297;BME280;35163;48.878;18.040;2023-02-03T01:37:23;99123.38;;;1.48;54.24
49297;BME280;35163;48.878;18.040;2023-02-03T01:39:49;99119.06;;;1.45;53.96
49297;BME280;35163;48.878;18.040;2023-02-03T01:42:16;99116.50;;;1.43;54.54
49297;BME280;35163;48.878;18.040;2023-02-03T01:44:46;99113.09;;;1.44;55.07
49297;BME280;35163;48.878;18.040;2023-02-03T01:47:32;99115.66;;;1.44;55.31
49297;BME280;35163;48.878;18.040;2023-02-03T01:52:34;99107.88;;;1.35;56.46
49297;BME280;35163;48.878;18.040;2023-02-03T01:55:04;99100.97;;;1.29;56.24
49297;BME280;35163;48.878;18.040;2023-02-03T01:57:37;99099.22;;;1.25;57.42
49297;BME280;35163;48.878;18.040;2023-02-03T02:00:06;99099.19;;;1.24;56.98
49297;BME280;35163;48.878;18.040;2023-02-03T02:02:34;99099.97;;;1.21;56.00
49297;BME280;35163;48.878;18.040;2023-02-03T02:05:10;99093.91;;;1.14;56.60
49297;BME280;35163;48.878;18.040;2023-02-03T02:07:40;99099.84;;;1.13;56.58
49297;BME280;35163;48.878;18.040;2023-02-03T02:10:08;99097.22;;;1.10;56.77
49297;BME280;35163;48.878;18.040;2023-02-03T02:12:35;99091.28;;;1.09;57.44
49297;BME280;35163;48.878;18.040;2023-02-03T02:15:02;99091.28;;;1.09;58.03
49297;BME280;35163;48.878;18.040;2023-02-03T02:31:40;99092.56;;;0.86;58.93
49297;BME280;35163;48.878;18.040;2023-02-03T02:37:06;99090.09;;;0.90;57.74
49297;BME280;35163;48.878;18.040;2023-02-03T02:42:24;99088.41;;;0.91;59.47
49297;BME280;35163;48.878;18.040;2023-02-03T02:45:01;99082.50;;;0.93;57.86
49297;BME280;35163;48.878;18.040;2023-02-03T02:47:31;99073.22;;;0.95;58.58
49297;BME280;35163;48.878;18.040;2023-02-03T02:50:04;99083.44;;;0.99;58.32
49297;BME280;35163;48.878;18.040;2023-02-03T02:52:35;99072.38;;;0.98;57.94
49297;BME280;35163;48.878;18.040;2023-02-03T02:55:18;99073.25;;;0.99;58.14
49297;BME280;35163;48.878;18.040;2023-02-03T02:57:52;99070.72;;;0.99;58.10
49297;BME280;35163;48.878;18.040;2023-02-03T03:00:21;99072.41;;;1.00;57.41
49297;BME280;35163;48.878;18.040;2023-02-03T03:02:48;99063.94;;;0.99;58.73
49297;BME280;35163;48.878;18.040;2023-02-03T03:05:16;99067.31;;;1.00;58.57
49297;BME280;35163;48.878;18.040;2023-02-03T03:07:51;99061.38;;;0.98;58.39
49297;BME280;35163;48.878;18.040;2023-02-03T03:10:22;99065.56;;;0.95;58.68
49297;BME280;35163;48.878;18.040;2023-02-03T03:12:59;99066.41;;;0.94;59.01
49297;BME280;35163;48.878;18.040;2023-02-03T03:15:30;99071.50;;;0.94;59.71
49297;BME280;35163;48.878;18.040;2023-02-03T03:18:06;99063.88;;;0.94;59.19
49297;BME280;35163;48.878;18.040;2023-02-03T03:20:37;99059.56;;;0.93;59.54
49297;BME280;35163;48.878;18.040;2023-02-03T03:23:27;99053.66;;;0.94;60.00
49297;BME280;35163;48.878;18.040;2023-02-03T03:26:12;99049.38;;;0.92;60.35
49297;BME280;35163;48.878;18.040;2023-02-03T03:28:46;99041.69;;;0.89;59.70
49297;BME280;35163;48.878;18.040;2023-02-03T03:31:18;99030.56;;;0.85;61.32
49297;BME280;35163;48.878;18.040;2023-02-03T03:33:46;99027.19;;;0.86;60.29
49297;BME280;35163;48.878;18.040;2023-02-03T03:36:34;99027.13;;;0.83;60.56
49297;BME280;35163;48.878;18.040;2023-02-03T03:39:25;99038.25;;;0.87;60.17
49297;BME280;35163;48.878;18.040;2023-02-03T03:41:58;99039.09;;;0.86;60.68
49297;BME280;35163;48.878;18.040;2023-02-03T03:44:37;99034.84;;;0.88;59.84
49297;BME280;35163;48.878;18.040;2023-02-03T03:47:20;99040.75;;;0.85;60.79
49297;BME280;35163;48.878;18.040;2023-02-03T03:49:50;99051.03;;;0.90;60.31
49297;BME280;35163;48.878;18.040;2023-02-03T03:52:23;99056.13;;;0.91;61.28
49297;BME280;35163;48.878;18.040;2023-02-03T03:54:52;99062.09;;;0.92;61.68
49297;BME280;35163;48.878;18.040;2023-02-03T03:57:29;99052.78;;;0.92;60.65
49297;BME280;35163;48.878;18.040;2023-02-03T03:59:57;99057.91;;;0.94;60.34
49297;BME280;35163;48.878;18.040;2023-02-03T04:02:25;99051.13;;;0.94;59.57
49297;BME280;35163;48.878;18.040;2023-02-03T04:04:54;99057.97;;;0.99;60.38
49297;BME280;35163;48.878;18.040;2023-02-03T04:07:21;99045.19;;;0.95;59.98
49297;BME280;35163;48.878;18.040;2023-02-03T04:09:48;99038.34;;;0.93;60.34
49297;BME280;35163;48.878;18.040;2023-02-03T04:12:32;99041.81;;;0.96;60.23
49297;BME280;35163;48.878;18.040;2023-02-03T04:14:59;99047.78;;;0.99;60.59
49297;BME280;35163;48.878;18.040;2023-02-03T04:17:25;99039.25;;;0.96;62.17
49297;BME280;35163;48.878;18.040;2023-02-03T04:19:52;99041.06;;;1.02;61.70
49297;BME280;35163;48.878;18.040;2023-02-03T04:22:18;99049.56;;;1.03;62.60
49297;BME280;35163;48.878;18.040;2023-02-03T04:24:45;99036.84;;;1.03;62.15
49297;BME280;35163;48.878;18.040;2023-02-03T04:27:11;99027.47;;;1.03;62.00
49297;BME280;35163;48.878;18.040;2023-02-03T04:29:40;99029.25;;;1.06;61.08
49297;BME280;35163;48.878;18.040;2023-02-03T04:32:07;99025.75;;;1.01;60.61
49297;BME280;35163;48.878;18.040;2023-02-03T04:34:33;99024.03;;;1.00;60.57
49297;BME280;35163;48.878;18.040;2023-02-03T04:37:00;99026.53;;;0.98;61.88
49297;BME280;35163;48.878;18.040;2023-02-03T04:39:26;99025.75;;;1.01;61.95
49297;BME280;35163;48.878;18.040;2023-02-03T04:41:53;99025.81;;;1.04;61.90
49297;BME280;35163;48.878;18.040;2023-02-03T04:44:19;99031.78;;;1.06;62.32
49297;BME280;35163;48.878;18.040;2023-02-03T04:46:48;99019.94;;;1.08;61.88
49297;BME280;35163;48.878;18.040;2023-02-03T04:49:14;99019.09;;;1.09;62.44
49297;BME280;35163;48.878;18.040;2023-02-03T04:51:42;99012.34;;;1.11;61.62
49297;BME280;35163;48.878;18.040;2023-02-03T04:54:10;99004.63;;;1.06;60.57
49297;BME280;35163;48.878;18.040;2023-02-03T04:56:37;99005.50;;;1.10;61.10
49297;BME280;35163;48.878;18.040;2023-02-03T04:59:03;99004.75;;;1.16;61.03
49297;BME280;35163;48.878;18.040;2023-02-03T05:01:30;99007.34;;;1.19;61.09
49297;BME280;35163;48.878;18.040;2023-02-03T05:03:57;99003.03;;;1.13;61.97
49297;BME280;35163;48.878;18.040;2023-02-03T05:06:24;99008.19;;;1.16;61.92
49297;BME280;35163;48.878;18.040;2023-02-03T05:08:52;99001.31;;;1.12;62.33
49297;BME280;35163;48.878;18.040;2023-02-03T05:11:18;99000.50;;;1.13;62.93
49297;BME280;35163;48.878;18.040;2023-02-03T05:13:45;98997.06;;;1.11;61.59
49297;BME280;35163;48.878;18.040;2023-02-03T05:16:12;98987.53;;;1.01;62.00
49297;BME280;35163;48.878;18.040;2023-02-03T05:18:38;98994.31;;;1.00;62.17
49297;BME280;35163;48.878;18.040;2023-02-03T05:21:05;98988.09;;;0.82;62.91
49297;BME280;35163;48.878;18.040;2023-02-03T05:23:32;98986.56;;;0.92;62.25
49297;BME280;35163;48.878;18.040;2023-02-03T05:26:02;98980.63;;;0.93;62.37
49297;BME280;35163;48.878;18.040;2023-02-03T05:28:28;98980.59;;;0.92;62.95
49297;BME280;35163;48.878;18.040;2023-02-03T05:30:59;98982.19;;;0.85;63.11
49297;BME280;35163;48.878;18.040;2023-02-03T05:33:26;98985.69;;;0.92;62.82
49297;BME280;35163;48.878;18.040;2023-02-03T05:35:53;98978.00;;;0.87;62.55
49297;BME280;35163;48.878;18.040;2023-02-03T05:38:20;98979.66;;;0.85;63.13
49297;BME280;35163;48.878;18.040;2023-02-03T05:40:47;98971.09;;;0.81;63.35
49297;BME280;35163;48.878;18.040;2023-02-03T05:43:33;98956.78;;;0.88;62.98
49297;BME280;35163;48.878;18.040;2023-02-03T05:46:04;98957.75;;;0.96;62.48
49297;BME280;35163;48.878;18.040;2023-02-03T05:48:31;98960.47;;;1.07;61.89
49297;BME280;35163;48.878;18.040;2023-02-03T05:50:58;98959.63;;;1.07;61.71
49297;BME280;35163;48.878;18.040;2023-02-03T05:53:25;98958.78;;;1.06;61.83
49297;BME280;35163;48.878;18.040;2023-02-03T05:55:53;98956.06;;;0.97;61.53
49297;BME280;35163;48.878;18.040;2023-02-03T05:58:19;98955.06;;;0.86;61.37
49297;BME280;35163;48.878;18.040;2023-02-03T06:00:46;98957.66;;;0.90;61.29
49297;BME280;35163;48.878;18.040;2023-02-03T06:03:12;98962.00;;;0.96;60.94
49297;BME280;35163;48.878;18.040;2023-02-03T06:05:39;98952.78;;;1.03;60.25
49297;BME280;35163;48.878;18.040;2023-02-03T06:08:07;98954.56;;;1.10;60.81
49297;BME280;35163;48.878;18.040;2023-02-03T06:10:33;98947.84;;;1.14;60.75
49297;BME280;35163;48.878;18.040;2023-02-03T06:13:08;98945.25;;;1.12;62.26
49297;BME280;35163;48.878;18.040;2023-02-03T06:15:35;98952.06;;;1.12;61.81
49297;BME280;35163;48.878;18.040;2023-02-03T06:18:01;98957.13;;;1.10;63.16
49297;BME280;35163;48.878;18.040;2023-02-03T06:20:28;98956.34;;;1.14;63.58
49297;BME280;35163;48.878;18.040;2023-02-03T06:22:55;98949.59;;;1.16;63.27
49297;BME280;35163;48.878;18.040;2023-02-03T06:25:21;98936.03;;;1.20;64.32
49297;BME280;35163;48.878;18.040;2023-02-03T06:27:50;98941.22;;;1.24;64.16
49297;BME280;35163;48.878;18.040;2023-02-03T06:30:17;98938.66;;;1.24;65.09
49297;BME280;35163;48.878;18.040;2023-02-03T06:32:43;98926.72;;;1.23;64.79
49297;BME280;35163;48.878;18.040;2023-02-03T06:35:10;98923.31;;;1.20;63.93
49297;BME280;35163;48.878;18.040;2023-02-03T06:37:36;98920.75;;;1.20;64.11
49297;BME280;35163;48.878;18.040;2023-02-03T06:40:04;98913.13;;;1.22;63.52
49297;BME280;35163;48.878;18.040;2023-02-03T06:42:30;98916.63;;;1.29;63.07
49297;BME280;35163;48.878;18.040;2023-02-03T06:44:57;98917.50;;;1.31;63.12
49297;BME280;35163;48.878;18.040;2023-02-03T06:47:24;98914.16;;;1.32;62.73
49297;BME280;35163;48.878;18.040;2023-02-03T06:49:50;98910.75;;;1.35;62.78
49297;BME280;35163;48.878;18.040;2023-02-03T06:52:17;98920.91;;;1.30;62.85
49297;BME280;35163;48.878;18.040;2023-02-03T06:54:44;98915.81;;;1.30;62.48
49297;BME280;35163;48.878;18.040;2023-02-03T06:57:10;98924.25;;;1.29;62.90
49297;BME280;35163;48.878;18.040;2023-02-03T06:59:37;98927.69;;;1.31;63.36
49297;BME280;35163;48.878;18.040;2023-02-03T07:02:04;98932.78;;;1.31;63.95
49297;BME280;35163;48.878;18.040;2023-02-03T07:04:30;98932.00;;;1.33;63.71
49297;BME280;35163;48.878;18.040;2023-02-03T07:06:57;98933.69;;;1.35;63.22
49297;BME280;35163;48.878;18.040;2023-02-03T07:09:26;98931.16;;;1.36;64.77
49297;BME280;35163;48.878;18.040;2023-02-03T07:11:53;98930.19;;;1.26;65.95
49297;BME280;35163;48.878;18.040;2023-02-03T07:14:19;98923.44;;;1.28;66.21
49297;BME280;35163;48.878;18.040;2023-02-03T07:16:46;98909.84;;;1.29;65.92
49297;BME280;35163;48.878;18.040;2023-02-03T07:19:12;98907.28;;;1.28;66.33
49297;BME280;35163;48.878;18.040;2023-02-03T07:21:39;98904.75;;;1.31;66.27
49297;BME280;35163;48.878;18.040;2023-02-03T07:24:06;98907.34;;;1.34;67.44
49297;BME280;35163;48.878;18.040;2023-02-03T07:26:35;98903.97;;;1.35;67.79
49297;BME280;35163;48.878;18.040;2023-02-03T07:29:02;98903.13;;;1.36;68.15
49297;BME280;35163;48.878;18.040;2023-02-03T07:31:29;98901.44;;;1.35;68.49
49297;BME280;35163;48.878;18.040;2023-02-03T07:33:56;98901.47;;;1.37;69.00
49297;BME280;35163;48.878;18.040;2023-02-03T07:36:22;98895.50;;;1.38;69.32
49297;BME280;35163;48.878;18.040;2023-02-03T07:38:49;98889.59;;;1.39;69.57
49297;BME280;35163;48.878;18.040;2023-02-03T07:41:16;98894.69;;;1.37;70.53
49297;BME280;35163;48.878;18.040;2023-02-03T07:43:43;98887.88;;;1.39;70.32
49297;BME280;35163;48.878;18.040;2023-02-03T07:46:10;98898.03;;;1.36;70.99
49297;BME280;35163;48.878;18.040;2023-02-03T07:48:36;98898.84;;;1.32;71.90
49297;BME280;35163;48.878;18.040;2023-02-03T07:51:03;98885.25;;;1.31;72.57
49297;BME280;35163;48.878;18.040;2023-02-03T07:53:30;98890.28;;;1.27;72.55
49297;BME280;35163;48.878;18.040;2023-02-03T07:56:03;98897.09;;;1.29;73.32
49297;BME280;35163;48.878;18.040;2023-02-03T07:58:31;98895.41;;;1.28;73.63
49297;BME280;35163;48.878;18.040;2023-02-03T08:00:58;98903.88;;;1.29;73.60
49297;BME280;35163;48.878;18.040;2023-02-03T08:03:25;98886.84;;;1.25;74.49
49297;BME280;35163;48.878;18.040;2023-02-03T08:05:51;98873.31;;;1.29;74.83
49297;BME280;35163;48.878;18.040;2023-02-03T08:08:18;98864.00;;;1.31;75.01
49297;BME280;35163;48.878;18.040;2023-02-03T08:10:45;98864.00;;;1.32;74.56
49297;BME280;35163;48.878;18.040;2023-02-03T08:13:12;98858.91;;;1.32;74.81
49297;BME280;35163;48.878;18.040;2023-02-03T08:15:38;98849.53;;;1.27;74.50
49297;BME280;35163;48.878;18.040;2023-02-03T08:18:05;98847.78;;;1.26;75.54
49297;BME280;35163;48.878;18.040;2023-02-03T08:20:34;98834.97;;;1.18;74.96
49297;BME280;35163;48.878;18.040;2023-02-03T08:23:00;98839.22;;;1.20;75.97
49297;BME280;35163;48.878;18.040;2023-02-03T08:25:27;98840.97;;;1.21;76.19
49297;BME280;35163;48.878;18.040;2023-02-03T08:27:53;98834.13;;;1.20;76.02
49297;BME280;35163;48.878;18.040;2023-02-03T08:30:21;98828.22;;;1.21;76.62
49297;BME280;35163;48.878;18.040;2023-02-03T08:32:47;98818.94;;;1.27;76.37
49297;BME280;35163;48.878;18.040;2023-02-03T08:35:20;98824.06;;;1.28;76.71
49297;BME280;35163;48.878;18.040;2023-02-03T08:37:46;98817.22;;;1.26;76.74
49297;BME280;35163;48.878;18.040;2023-02-03T08:40:14;98815.59;;;1.31;77.00
49297;BME280;35163;48.878;18.040;2023-02-03T08:42:41;98810.44;;;1.28;77.35
49297;BME280;35163;48.878;18.040;2023-02-03T08:45:08;98800.28;;;1.31;77.31
49297;BME280;35163;48.878;18.040;2023-02-03T08:47:35;98793.50;;;1.31;77.76
49297;BME280;35163;48.878;18.040;2023-02-03T08:50:06;98794.41;;;1.37;78.30
49297;BME280;35163;48.878;18.040;2023-02-03T08:52:33;98789.34;;;1.40;77.90
49297;BME280;35163;48.878;18.040;2023-02-03T08:54:59;98791.06;;;1.41;78.40
49297;BME280;35163;48.878;18.040;2023-02-03T08:57:26;98796.25;;;1.47;77.45
49297;BME280;35163;48.878;18.040;2023-02-03T08:59:53;98793.78;;;1.58;76.23
49297;BME280;35163;48.878;18.040;2023-02-03T09:02:20;98792.19;;;1.65;76.40
49297;BME280;35163;48.878;18.040;2023-02-03T09:04:46;98792.13;;;1.60;77.26
49297;BME280;35163;48.878;18.040;2023-02-03T09:07:14;98785.34;;;1.59;77.43
49297;BME280;35163;48.878;18.040;2023-02-03T09:09:42;98774.28;;;1.60;77.97
49297;BME280;35163;48.878;18.040;2023-02-03T09:12:08;98778.56;;;1.61;77.30
49297;BME280;35163;48.878;18.040;2023-02-03T09:14:37;98770.13;;;1.70;77.42
49297;BME280;35163;48.878;18.040;2023-02-03T09:17:04;98768.44;;;1.70;77.77
49297;BME280;35163;48.878;18.040;2023-02-03T09:19:33;98774.41;;;1.71;77.61
49297;BME280;35163;48.878;18.040;2023-02-03T09:22:02;98771.88;;;1.73;77.60
49297;BME280;35163;48.878;18.040;2023-02-03T09:24:29;98766.00;;;1.80;77.54
49297;BME280;35163;48.878;18.040;2023-02-03T09:26:56;98760.03;;;1.78;77.24
49297;BME280;35163;48.878;18.040;2023-02-03T09:29:22;98755.84;;;1.88;77.61
49297;BME280;35163;48.878;18.040;2023-02-03T09:31:49;98755.00;;;1.87;78.04
49297;BME280;35163;48.878;18.040;2023-02-03T09:34:20;98763.53;;;1.89;79.96
49297;BME280;35163;48.878;18.040;2023-02-03T09:36:47;98760.16;;;1.92;77.64
49297;BME280;35163;48.878;18.040;2023-02-03T09:39:13;98750.03;;;2.03;76.15
49297;BME280;35163;48.878;18.040;2023-02-03T09:42:08;98736.50;;;2.10;75.32
49297;BME280;35163;48.878;18.040;2023-02-03T09:47:20;98737.31;;;2.06;75.27
49297;BME280;35163;48.878;18.040;2023-02-03T09:49:55;98734.69;;;1.98;75.06
49297;BME280;35163;48.878;18.040;2023-02-03T09:52:30;98719.38;;;1.97;74.39
49297;BME280;35163;48.878;18.040;2023-02-03T09:55:06;98718.47;;;1.88;75.32
49297;BME280;35163;48.878;18.040;2023-02-03T09:57:48;98713.38;;;1.88;74.90
49297;BME280;35163;48.878;18.040;2023-02-03T10:04:21;98701.41;;;1.84;74.67
49297;BME280;35163;48.878;18.040;2023-02-03T10:06:43;98700.50;;;1.76;76.53
49297;BME280;35163;48.878;18.040;2023-02-03T10:09:33;98700.44;;;1.66;76.35
49297;BME280;35163;48.878;18.040;2023-02-03T10:14:59;98705.41;;;1.54;76.81
49297;BME280;35163;48.878;18.040;2023-02-03T10:17:34;98696.06;;;1.53;79.14
49297;BME280;35163;48.878;18.040;2023-02-03T10:22:36;98680.69;;;1.45;78.55
49297;BME280;35163;48.878;18.040;2023-02-03T10:25:14;98671.50;;;1.61;79.02
49297;BME280;35163;48.878;18.040;2023-02-03T10:27:43;98671.53;;;1.67;79.52
49297;BME280;35163;48.878;18.040;2023-02-03T10:30:23;98668.19;;;1.75;80.65
49297;BME280;35163;48.878;18.040;2023-02-03T10:33:01;98670.00;;;1.87;78.79
49297;BME280;35163;48.878;18.040;2023-02-03T10:35:50;98652.16;;;1.91;78.35
49297;BME280;35163;48.878;18.040;2023-02-03T10:38:38;98647.97;;;1.97;76.86
49297;BME280;35163;48.878;18.040;2023-02-03T10:41:06;98647.09;;;1.96;77.51
49297;BME280;35163;48.878;18.040;2023-02-03T10:43:33;98638.63;;;2.00;77.70
49297;BME280;35163;48.878;18.040;2023-02-03T10:46:14;98636.94;;;2.01;76.54
49297;BME280;35163;48.878;18.040;2023-02-03T10:48:41;98626.69;;;1.96;76.75
49297;BME280;35163;48.878;18.040;2023-02-03T10:51:17;98617.34;;;1.93;76.85
49297;BME280;35163;48.878;18.040;2023-02-03T10:53:45;98612.22;;;1.90;77.04
49297;BME280;35163;48.878;18.040;2023-02-03T10:56:15;98601.13;;;1.85;77.19
49297;BME280;35163;48.878;18.040;2023-02-03T10:58:51;98601.97;;;1.84;77.16
49297;BME280;35163;48.878;18.040;2023-02-03T11:01:21;98584.97;;;1.83;77.11
49297;BME280;35163;48.878;18.040;2023-02-03T11:04:00;98582.38;;;1.77;76.99
49297;BME280;35163;48.878;18.040;2023-02-03T11:06:30;98550.16;;;1.91;76.63
49297;BME280;35163;48.878;18.040;2023-02-03T11:08:57;98559.53;;;1.96;76.73
49297;BME280;35163;48.878;18.040;2023-02-03T11:11:26;98545.81;;;1.78;77.29
49297;BME280;35163;48.878;18.040;2023-02-03T11:16:32;98528.06;;;1.89;76.14
49297;BME280;35163;48.878;18.040;2023-02-03T11:19:20;98525.50;;;1.89;76.52
49297;BME280;35163;48.878;18.040;2023-02-03T11:21:52;98528.88;;;1.91;76.78
49297;BME280;35163;48.878;18.040;2023-02-03T11:24:33;98515.31;;;1.93;76.17
49297;BME280;35163;48.878;18.040;2023-02-03T11:27:05;98501.69;;;1.91;77.21
49297;BME280;35163;48.878;18.040;2023-02-03T11:29:35;98505.94;;;1.91;77.54
49297;BME280;35163;48.878;18.040;2023-02-03T11:32:15;98500.03;;;1.95;77.73
49297;BME280;35163;48.878;18.040;2023-02-03T11:34:57;98496.59;;;1.94;78.44
49297;BME280;35163;48.878;18.040;2023-02-03T11:37:39;98478.75;;;1.91;78.87
49297;BME280;35163;48.878;18.040;2023-02-03T11:42:36;98462.56;;;1.89;78.97
49297;BME280;35163;48.878;18.040;2023-02-03T11:56:31;98430.34;;;2.13;78.94
49297;BME280;35163;48.878;18.040;2023-02-03T12:04:42;98409.94;;;2.07;79.79
49297;BME280;35163;48.878;18.040;2023-02-03T12:26:31;98341.94;;;2.26;79.65
49297;BME280;35163;48.878;18.040;2023-02-03T12:29:13;98343.63;;;2.20;80.55
49297;BME280;35163;48.878;18.040;2023-02-03T12:32:08;98340.22;;;2.21;80.45
49297;BME280;35163;48.878;18.040;2023-02-03T12:38:26;98331.72;;;2.17;81.49
49297;BME280;35163;48.878;18.040;2023-02-03T12:40:59;98324.06;;;2.18;81.09
49297;BME280;35163;48.878;18.040;2023-02-03T12:43:29;98306.19;;;2.22;81.47
49297;BME280;35163;48.878;18.040;2023-02-03T12:46:17;98301.09;;;2.22;81.24
49297;BME280;35163;48.878;18.040;2023-02-03T12:49:03;98287.50;;;2.35;81.25
49297;BME280;35163;48.878;18.040;2023-02-03T12:51:38;98276.44;;;2.39;81.03
49297;BME280;35163;48.878;18.040;2023-02-03T12:54:28;98270.47;;;2.48;80.51
49297;BME280;35163;48.878;18.040;2023-02-03T12:57:08;98257.72;;;2.50;80.24
49297;BME280;35163;48.878;18.040;2023-02-03T12:59:41;98254.28;;;2.59;80.44
49297;BME280;35163;48.878;18.040;2023-02-03T13:02:25;98246.66;;;2.54;80.75
49297;BME280;35163;48.878;18.040;2023-02-03T13:04:58;98232.19;;;2.45;81.68
49297;BME280;35163;48.878;18.040;2023-02-03T13:07:56;98223.69;;;2.46;82.28
49297;BME280;35163;48.878;18.040;2023-02-03T13:13:02;98210.94;;;2.41;83.61
49297;BME280;35163;48.878;18.040;2023-02-03T13:15:39;98212.66;;;2.35;83.46
49297;BME280;35163;48.878;18.040;2023-02-03T13:18:18;98210.94;;;2.41;83.28
49297;BME280;35163;48.878;18.040;2023-02-03T13:20:46;98210.94;;;2.38;84.27
49297;BME280;35163;48.878;18.040;2023-02-03T13:23:14;98209.22;;;2.37;84.66
49297;BME280;35163;48.878;18.040;2023-02-03T13:39:46;98177.72;;;2.59;85.68
49297;BME280;35163;48.878;18.040;2023-02-03T13:42:24;98168.34;;;2.59;85.11
49297;BME280;35163;48.878;18.040;2023-02-03T13:45:17;98159.84;;;2.59;86.01
49297;BME280;35163;48.878;18.040;2023-02-03T13:47:51;98153.03;;;2.62;85.91
49297;BME280;35163;48.878;18.040;2023-02-03T13:50:22;98148.75;;;2.66;86.09
49297;BME280;35163;48.878;18.040;2023-02-03T13:55:53;98115.50;;;2.77;85.21
49297;BME280;35163;48.878;18.040;2023-02-03T13:58:27;98112.06;;;2.84;84.42
49297;BME280;35163;48.878;18.040;2023-02-03T14:03:45;98096.69;;;2.92;84.49
49297;BME280;35163;48.878;18.040;2023-02-03T14:12:29;98086.47;;;2.90;85.17
49297;BME280;35163;48.878;18.040;2023-02-03T14:15:00;98085.66;;;2.90;85.53
49297;BME280;35163;48.878;18.040;2023-02-03T14:20:03;98072.91;;;2.88;86.37
49297;BME280;35163;48.878;18.040;2023-02-03T14:22:31;98069.41;;;2.99;85.40
49297;BME280;35163;48.878;18.040;2023-02-03T14:25:04;98066.84;;;3.02;85.14
49297;BME280;35163;48.878;18.040;2023-02-03T14:27:32;98067.69;;;3.01;85.62
49297;BME280;35163;48.878;18.040;2023-02-03T14:30:14;98065.97;;;3.06;85.91
49297;BME280;35163;48.878;18.040;2023-02-03T14:32:50;98065.13;;;3.02;86.56
49297;BME280;35163;48.878;18.040;2023-02-03T14:35:31;98071.13;;;3.00;87.04
49297;BME280;35163;48.878;18.040;2023-02-03T14:38:04;98065.19;;;2.96;87.16
49297;BME280;35163;48.878;18.040;2023-02-03T14:40:55;98047.25;;;3.01;86.71
49297;BME280;35163;48.878;18.040;2023-02-03T14:43:40;98037.00;;;3.04;86.86
49297;BME280;35163;48.878;18.040;2023-02-03T14:57:40;98005.44;;;3.18;86.31
49297;BME280;35163;48.878;18.040;2023-02-03T15:08:45;98006.16;;;3.32;86.23
49297;BME280;35163;48.878;18.040;2023-02-03T15:11:26;98005.31;;;3.28;86.57
49297;BME280;35163;48.878;18.040;2023-02-03T15:13:55;98010.41;;;3.35;86.77
49297;BME280;35163;48.878;18.040;2023-02-03T15:16:23;98007.00;;;3.33;86.66
49297;BME280;35163;48.878;18.040;2023-02-03T15:18:57;98002.00;;;3.19;87.71
49297;BME280;35163;48.878;18.040;2023-02-03T15:21:25;98010.47;;;3.25;87.80
49297;BME280;35163;48.878;18.040;2023-02-03T15:23:52;97992.66;;;3.18;88.12
49297;BME280;35163;48.878;18.040;2023-02-03T15:26:24;97969.66;;;3.13;88.09
49297;BME280;35163;48.878;18.040;2023-02-03T15:28:59;97984.09;;;3.19;88.81